Impacts METAR Board
IDs:

KEWR - Newark Intl, NJ, US

Updated at: 0300 UTC 23 May 2018
Potential Impact None Slight Moderate High
Time 22/15Z 22/16Z 22/17Z 22/18Z 22/19Z 22/20Z 22/21Z 22/22Z 22/23Z 23/00Z 23/01Z 23/02Z 23/03Z
Temp65 66 66 66 63 60 60 58 59 60 59 58 58
Dewpt50 50 53 53 51 55 54 53 54 56 56 56 57
Altim30.15 30.13 30.11 30.10 30.11 30.06 30.05 30.04 30.03 30.00 30.00 30.00 29.98
VIS10 10 10 10 4 5 10 10 10 10 10 9 7
CIG70 70 75 60 49 60 40 10 10 10 9 6 6
CoverOVCOVCOVCOVCOVCOVCOVCOVCOVCOVCOVCOVCOVC
FltCatVFRVFRVFRVFRMVFRMVFRVFRMVFRMVFRMVFRIFRIFRIFR
WX--------RA-RA-RA-RA-RA--------
WDir1401401501300060203601001501700
WSpd6 7 7 5 0 4 4 6 5 3 4 5 0
WGst-- -- -- -- -- -- -- -- -- -- -- -- --
Raw hourly METARs
KEWR 221451Z 14006KT 10SM OVC070 18/10 A3015 RMK AO2 RAE14 SLP208 P0000 60000 T01830100 58005
KEWR 221551Z 14007KT 10SM OVC070 19/10 A3013 RMK AO2 SLP202 T01890100
KEWR 221651Z 15007KT 10SM OVC075 19/12 A3011 RMK AO2 SLP197 T01890117
KEWR 221751Z 13005KT 10SM OVC060 19/12 A3010 RMK AO2 SLP191 60000 T01890117 10194 20178 58017
KEWR 221851Z 00000KT 4SM RA BKN049 BKN065 OVC075 17/11 A3011 RMK AO2 RAB13 SLP194 P0004 T01720106
KEWR 221951Z VRB04KT 5SM -RA SCT020 BKN060 OVC085 16/13 A3006 RMK AO2 SLP179 P0012 T01560128
KEWR 222051Z 06004KT 10SM -RA FEW018 BKN040 OVC080 16/12 A3005 RMK AO2 SLP174 P0002 60018 T01560122 58017
KEWR 222151Z 02006KT 10SM -RA BKN010 OVC033 14/12 A3004 RMK AO2 RAE19B47 SLP171 P0000 T01440117
KEWR 222251Z 36005KT 10SM -RA BKN010 OVC028 15/12 A3003 RMK AO2 RAE2158B45 SLP169 P0000 T01500122
KEWR 222351Z 10003KT 10SM BKN010 BKN028 OVC090 16/13 A3000 RMK AO2 RAE40 SLP158 P0001 60019 T01560133 10189 20144 58016
KEWR 230051Z 15004KT 10SM BKN009 OVC025 15/13 A3000 RMK AO2 SLP158 T01500133
KEWR 230151Z 17005KT 9SM BKN006 OVC014 14/13 A3000 RMK AO2 SLP158 T01440133
KEWR 230251Z 00000KT 7SM BKN006 OVC020 14/14 A2998 RMK AO2 SLP152 T01440139 58006



Page loaded:  03:07 UTC  |   08:07 PM Pacific  |   09:07 PM Mountain  |   10:07 PM Central  |   11:07 PM Eastern

 

ADVISORIES

FORECASTS

FORECASTS

OBSERVATIONS

USER TOOLS

ABOUT US